createdAt,value
2019-03-02T00:01:29.604Z,54.27
2019-03-02T00:03:57.747Z,46.37
2019-03-02T00:06:25.617Z,46.88
2019-03-02T00:08:56.646Z,46.48
2019-03-02T00:11:24.649Z,45.70
2019-03-02T00:13:52.985Z,46.58
2019-03-02T00:16:21.216Z,46.25
2019-03-02T00:18:53.205Z,45.92
2019-03-02T00:21:22.663Z,42.50
2019-03-02T00:23:54.400Z,44.13
2019-03-02T00:26:23.724Z,40.92
2019-03-02T00:28:54.086Z,42.30
2019-03-02T00:31:21.749Z,38.67
2019-03-02T00:33:49.406Z,39.45
2019-03-02T00:36:19.470Z,52.73
2019-03-02T00:38:47.893Z,43.98
2019-03-02T00:41:15.741Z,40.05
2019-03-02T00:43:44.561Z,46.13
2019-03-02T00:46:12.264Z,45.63
2019-03-02T00:48:40.188Z,42.38
2019-03-02T00:51:11.045Z,45.43
2019-03-02T00:53:38.075Z,40.48
2019-03-02T00:56:07.809Z,48.98
2019-03-02T00:58:39.827Z,48.83
2019-03-02T01:01:07.872Z,44.05
2019-03-02T01:03:35.571Z,54.90
2019-03-02T01:06:04.371Z,38.42
2019-03-02T01:08:35.020Z,42.27
2019-03-02T01:11:02.977Z,46.37
2019-03-02T01:13:32.565Z,44.73
2019-03-02T01:16:00.600Z,41.25
2019-03-02T01:18:28.954Z,44.18
2019-03-02T01:20:56.730Z,38.65
2019-03-02T01:23:27.470Z,40.30
2019-03-02T01:25:54.909Z,44.53
2019-03-02T01:28:24.895Z,41.50
2019-03-02T01:30:52.726Z,42.90
2019-03-02T01:33:25.105Z,41.80
2019-03-02T01:35:53.933Z,37.70
2019-03-02T01:38:23.011Z,43.25
2019-03-02T01:40:50.782Z,40.73
2019-03-02T01:43:22.117Z,47.90
2019-03-02T01:45:50.161Z,46.35
2019-03-02T01:48:17.842Z,39.58
2019-03-02T01:50:47.729Z,44.03
2019-03-02T01:53:15.899Z,45.45
2019-03-02T01:55:43.749Z,46.88
2019-03-02T01:58:11.649Z,45.85
2019-03-02T02:00:39.784Z,44.67
2019-03-02T02:03:08.443Z,45.95
2019-03-02T02:05:37.787Z,44.90
2019-03-02T02:08:06.839Z,46.60
2019-03-02T02:10:35.595Z,49.40
2019-03-02T02:13:06.163Z,45.12
2019-03-02T02:15:34.121Z,46.77
2019-03-02T02:18:01.810Z,51.55
2019-03-02T02:20:29.792Z,48.10
2019-03-02T02:22:57.766Z,48.98
2019-03-02T02:25:28.357Z,45.65
2019-03-02T02:27:57.877Z,48.20
2019-03-02T02:30:27.472Z,46.90
2019-03-02T02:33:02.792Z,45.40
2019-03-02T02:35:25.879Z,37.20
2019-03-02T02:37:53.569Z,46.00
2019-03-02T02:40:21.393Z,43.58
2019-03-02T02:42:50.388Z,35.68
2019-03-02T02:45:18.452Z,37.90
2019-03-02T02:47:51.683Z,33.02
2019-03-02T02:50:17.962Z,32.93
2019-03-02T02:52:46.075Z,41.33
2019-03-02T02:55:14.483Z,36.77
2019-03-02T02:57:42.614Z,40.05
2019-03-02T03:00:16.569Z,38.88
2019-03-02T03:02:45.607Z,35.48
2019-03-02T03:05:15.435Z,32.90
2019-03-02T03:07:51.830Z,36.40
2019-03-02T03:10:33.558Z,29.65
2019-03-02T03:13:02.557Z,27.98
2019-03-02T03:15:50.616Z,29.48
2019-03-02T03:18:18.682Z,33.20
2019-03-02T03:20:48.960Z,35.25
2019-03-02T03:23:20.242Z,28.87
2019-03-02T03:25:46.448Z,33.18
2019-03-02T03:28:14.243Z,35.60
2019-03-02T03:30:42.092Z,29.50
2019-03-02T03:33:09.970Z,34.30
2019-03-02T03:35:37.652Z,29.85
2019-03-02T03:38:06.030Z,30.50
2019-03-02T03:40:33.814Z,37.33
2019-03-02T03:43:03.344Z,31.17
2019-03-02T03:45:31.857Z,31.20
2019-03-02T03:47:59.563Z,32.75
2019-03-02T03:50:27.261Z,29.87
2019-03-02T03:52:55.965Z,42.13
2019-03-02T03:55:26.819Z,32.50
2019-03-02T03:57:55.703Z,29.12
2019-03-02T04:00:24.030Z,37.60
2019-03-02T04:02:52.081Z,23.90
2019-03-02T04:05:20.033Z,24.85
2019-03-02T04:07:49.879Z,23.92
2019-03-02T04:10:24.774Z,24.55
2019-03-02T04:12:50.394Z,31.62
2019-03-02T04:15:18.489Z,34.83
2019-03-02T04:17:46.348Z,34.33
2019-03-02T04:20:17.833Z,31.48
2019-03-02T04:22:46.039Z,31.82
2019-03-02T04:25:17.873Z,33.95
2019-03-02T04:27:44.337Z,35.92
2019-03-02T04:30:12.666Z,41.30
2019-03-02T04:32:45.189Z,43.63
2019-03-02T04:35:13.379Z,46.42
2019-03-02T04:37:41.482Z,44.38
2019-03-02T04:40:11.548Z,46.50
2019-03-02T04:42:39.261Z,38.50
2019-03-02T04:45:07.616Z,43.02
2019-03-02T04:47:35.377Z,36.20
2019-03-02T04:50:03.551Z,30.45
2019-03-02T04:52:31.510Z,33.55
2019-03-02T04:54:59.478Z,30.30
2019-03-02T04:57:29.174Z,34.48
2019-03-02T04:59:57.672Z,33.33
2019-03-02T05:02:25.937Z,29.10
2019-03-02T05:04:53.724Z,26.15
2019-03-02T05:07:21.386Z,23.22
2019-03-02T05:09:52.060Z,25.15
2019-03-02T05:12:19.840Z,24.72
2019-03-02T05:14:48.197Z,23.02
2019-03-02T05:17:16.470Z,22.95
2019-03-02T05:19:45.172Z,25.65
2019-03-02T05:22:15.589Z,22.15
2019-03-02T05:24:44.618Z,21.95
2019-03-02T05:27:14.076Z,22.13
2019-03-02T05:29:42.783Z,23.38
2019-03-02T05:32:12.507Z,16.05
2019-03-02T05:34:42.143Z,17.48
2019-03-02T05:37:11.845Z,17.87
2019-03-02T05:39:40.533Z,15.43
2019-03-02T05:42:10.313Z,13.78
2019-03-02T05:44:40.508Z,13.45
2019-03-02T05:47:08.415Z,14.38
2019-03-02T05:49:36.936Z,14.38
2019-03-02T05:52:04.614Z,12.53
2019-03-02T05:54:33.382Z,14.95
2019-03-02T05:57:04.135Z,10.72
2019-03-02T05:59:33.642Z,11.15
2019-03-02T06:02:02.229Z,11.88
2019-03-02T06:04:30.504Z,11.38
2019-03-02T06:06:58.352Z,11.63
2019-03-02T06:09:26.114Z,10.82
2019-03-02T06:11:54.045Z,10.55
2019-03-02T06:14:21.725Z,11.28
2019-03-02T06:16:49.789Z,10.53
2019-03-02T06:19:23.395Z,17.25
2019-03-02T06:21:48.797Z,11.78
2019-03-02T06:24:17.037Z,11.03
2019-03-02T06:26:44.926Z,12.75
2019-03-02T06:29:13.977Z,15.43
2019-03-02T06:31:41.904Z,12.10
2019-03-02T06:34:09.684Z,11.05
2019-03-02T06:36:40.945Z,10.60
2019-03-02T06:40:02.890Z,10.68
2019-03-02T06:42:50.040Z,10.48
2019-03-02T06:45:17.679Z,10.50
2019-03-02T06:47:44.969Z,10.82
2019-03-02T06:50:12.504Z,14.03
2019-03-02T06:52:40.007Z,13.30
2019-03-02T06:55:10.129Z,11.03
2019-03-02T06:57:37.378Z,13.65
2019-03-02T07:00:16.731Z,12.68
2019-03-02T07:02:44.103Z,12.18
2019-03-02T07:05:13.926Z,15.15
2019-03-02T07:07:41.475Z,11.88
2019-03-02T07:10:12.887Z,11.48
2019-03-02T07:12:41.806Z,13.05
2019-03-02T07:15:10.091Z,13.85
2019-03-02T07:17:52.215Z,14.03
2019-03-02T07:20:23.963Z,12.90
2019-03-02T07:22:52.459Z,12.53
2019-03-02T07:25:20.652Z,14.65
2019-03-02T07:27:48.105Z,14.33
2019-03-02T07:30:15.936Z,11.95
2019-03-02T07:32:43.748Z,12.82
2019-03-02T07:35:21.140Z,12.20
2019-03-02T07:37:50.185Z,12.05
2019-03-02T07:40:18.454Z,14.68
2019-03-02T07:42:46.746Z,15.63
2019-03-02T07:45:21.778Z,11.25
2019-03-02T07:47:49.878Z,17.98
2019-03-02T07:50:17.695Z,13.20
2019-03-02T07:52:45.545Z,13.40
2019-03-02T07:55:14.781Z,15.68
2019-03-02T07:57:44.592Z,11.90
2019-03-02T08:00:16.390Z,15.65
2019-03-02T08:02:44.476Z,12.10
2019-03-02T08:05:14.717Z,14.13
2019-03-02T08:07:43.967Z,13.58
2019-03-02T08:10:15.275Z,14.87
2019-03-02T08:12:43.651Z,10.68
2019-03-02T08:15:14.821Z,11.48
2019-03-02T08:17:45.661Z,12.00
2019-03-02T08:20:20.835Z,10.93
2019-03-02T08:22:47.765Z,11.65
2019-03-02T08:25:21.451Z,11.90
2019-03-02T08:27:51.298Z,11.65
2019-03-02T08:30:20.455Z,11.53
2019-03-02T08:32:48.736Z,11.25
2019-03-02T08:35:16.850Z,11.63
2019-03-02T08:37:45.035Z,15.07
2019-03-02T08:40:15.375Z,11.80
2019-03-02T08:42:43.492Z,8.13
2019-03-02T08:45:14.521Z,9.30
2019-03-02T08:47:42.213Z,10.58
2019-03-02T08:50:13.932Z,11.95
2019-03-02T08:52:42.417Z,11.48
2019-03-02T08:55:13.081Z,9.45
2019-03-02T08:57:40.836Z,8.85
2019-03-02T09:00:20.366Z,9.63
2019-03-02T09:02:48.055Z,8.80
2019-03-02T09:05:18.650Z,10.03
2019-03-02T09:07:46.848Z,10.57
2019-03-02T09:10:17.434Z,9.70
2019-03-02T09:12:45.378Z,11.53
2019-03-02T09:15:17.606Z,10.90
2019-03-02T09:17:45.466Z,11.63
2019-03-02T09:20:13.985Z,11.77
2019-03-02T09:22:42.113Z,13.53
2019-03-02T09:25:11.921Z,12.20
2019-03-02T09:27:39.891Z,10.85
2019-03-02T09:30:11.431Z,11.70
2019-03-02T09:32:40.921Z,11.00
2019-03-02T09:35:16.175Z,9.88
2019-03-02T09:37:44.878Z,10.53
2019-03-02T09:40:13.379Z,10.13
2019-03-02T09:42:42.604Z,10.50
2019-03-02T09:45:12.732Z,10.33
2019-03-02T09:47:43.922Z,9.60
2019-03-02T09:50:13.636Z,11.60
2019-03-02T09:52:42.261Z,11.23
2019-03-02T09:55:11.265Z,9.73
2019-03-02T09:57:41.710Z,10.80
2019-03-02T10:00:12.741Z,13.07
2019-03-02T10:02:41.531Z,11.43
2019-03-02T10:05:11.479Z,10.57
2019-03-02T10:07:39.320Z,11.10
2019-03-02T10:10:09.177Z,11.90
2019-03-02T10:12:38.510Z,12.65
2019-03-02T10:15:10.771Z,17.60
2019-03-02T10:17:39.782Z,14.20
2019-03-02T10:20:08.532Z,18.03
2019-03-02T10:22:36.733Z,14.50
2019-03-02T10:25:05.127Z,14.37
2019-03-02T10:27:32.911Z,17.27
2019-03-02T10:30:01.108Z,15.63
2019-03-02T10:32:28.908Z,16.40
2019-03-02T10:34:58.951Z,16.93
2019-03-02T10:37:26.689Z,13.70
2019-03-02T10:39:57.904Z,16.00
2019-03-02T10:42:27.793Z,15.47
2019-03-02T10:44:59.839Z,16.33
2019-03-02T10:47:28.092Z,14.57
2019-03-02T10:49:57.250Z,15.33
2019-03-02T10:52:26.191Z,14.53
2019-03-02T10:54:55.764Z,14.13
2019-03-02T10:57:23.643Z,13.60
2019-03-02T10:59:53.144Z,13.40
2019-03-02T11:02:21.101Z,12.30
2019-03-02T11:05:10.068Z,14.90
2019-03-02T11:08:09.204Z,12.77
2019-03-02T11:11:07.861Z,14.93
2019-03-02T11:13:58.149Z,14.10
2019-03-02T11:16:44.587Z,14.47
2019-03-02T11:19:24.069Z,15.17
2019-03-02T11:22:15.036Z,15.10
2019-03-02T11:25:09.118Z,14.77
2019-03-02T11:27:59.128Z,12.80
2019-03-02T11:30:45.659Z,12.00
2019-03-02T11:33:33.446Z,12.43
2019-03-02T11:36:20.787Z,12.45
2019-03-02T11:39:20.049Z,12.73
2019-03-02T11:42:16.534Z,12.10
2019-03-02T11:45:21.975Z,12.70
2019-03-02T11:48:01.035Z,11.25
2019-03-02T11:50:50.878Z,10.63
2019-03-02T11:53:52.025Z,14.07
2019-03-02T11:56:39.140Z,12.00
2019-03-02T11:59:32.669Z,12.33
2019-03-02T12:02:25.634Z,12.20
2019-03-02T12:05:12.862Z,11.45
2019-03-02T12:08:22.059Z,13.25
2019-03-02T12:11:22.628Z,11.35
2019-03-02T12:14:14.516Z,11.18
2019-03-02T12:17:04.408Z,12.45
2019-03-02T12:19:43.118Z,14.40
2019-03-02T12:22:30.371Z,10.70
2019-03-02T12:25:19.217Z,9.95
2019-03-02T12:28:18.496Z,9.80
2019-03-02T12:31:05.947Z,11.03
2019-03-02T12:34:03.988Z,11.10
2019-03-02T12:36:40.551Z,11.43
2019-03-02T12:39:20.021Z,13.72
2019-03-02T12:42:11.966Z,10.13
2019-03-02T12:44:54.187Z,12.73
2019-03-02T12:47:38.444Z,11.97
2019-03-02T12:50:33.282Z,17.57
2019-03-02T12:53:36.063Z,9.60
2019-03-02T12:56:29.187Z,9.78
2019-03-02T12:59:16.420Z,8.45
2019-03-02T13:01:59.366Z,9.08
2019-03-02T13:04:52.948Z,9.63
2019-03-02T13:07:47.064Z,10.58
2019-03-02T13:10:41.622Z,10.13
2019-03-02T13:13:29.227Z,11.88
2019-03-02T13:16:23.591Z,11.03
2019-03-02T13:19:12.230Z,10.32
2019-03-02T13:22:11.418Z,10.90
2019-03-02T13:25:08.393Z,9.10
2019-03-02T13:27:49.736Z,7.97
2019-03-02T13:30:29.621Z,9.40
2019-03-02T13:33:22.317Z,8.38
2019-03-02T13:36:09.937Z,8.60
2019-03-02T13:39:00.142Z,8.08
2019-03-02T13:41:46.519Z,9.10
2019-03-02T13:44:38.812Z,8.18
2019-03-02T13:47:29.052Z,10.48
2019-03-02T13:50:25.634Z,7.47
2019-03-02T13:53:20.002Z,9.65
2019-03-02T13:56:10.226Z,9.48
2019-03-02T13:59:00.902Z,10.85
2019-03-02T14:01:48.419Z,11.22
2019-03-02T14:04:48.109Z,14.05
2019-03-02T14:07:27.210Z,12.68
2019-03-02T14:10:20.584Z,11.38
2019-03-02T14:13:27.120Z,12.07
2019-03-02T14:16:22.495Z,11.20
2019-03-02T14:19:12.901Z,11.53
2019-03-02T14:22:00.067Z,10.88
2019-03-02T14:24:38.728Z,15.08
2019-03-02T14:27:35.102Z,12.95
2019-03-02T14:30:21.273Z,12.78
2019-03-02T14:33:09.739Z,15.95
2019-03-02T14:35:58.824Z,14.00
2019-03-02T14:39:01.397Z,17.20
2019-03-02T14:42:04.139Z,31.10
2019-03-02T14:45:06.228Z,23.62
2019-03-02T14:47:42.563Z,17.48
2019-03-02T14:50:30.149Z,16.70
2019-03-02T14:53:10.007Z,12.40
2019-03-02T14:56:00.398Z,16.85
2019-03-02T14:58:46.740Z,11.93
2019-03-02T15:01:36.187Z,16.17
2019-03-02T15:04:32.356Z,13.88
2019-03-02T15:07:31.894Z,13.70
2019-03-02T15:10:06.783Z,14.05
2019-03-02T15:12:53.990Z,11.63
2019-03-02T15:15:36.054Z,12.98
2019-03-02T15:18:38.272Z,16.23
2019-03-02T15:21:24.288Z,11.12
2019-03-02T15:24:16.577Z,11.43
2019-03-02T15:27:07.123Z,11.60
2019-03-02T15:30:06.761Z,10.75
2019-03-02T15:32:53.324Z,11.15
2019-03-02T15:35:33.674Z,12.60
2019-03-02T15:38:17.696Z,11.28
2019-03-02T15:41:05.278Z,11.05
2019-03-02T15:43:46.351Z,11.73
2019-03-02T15:46:40.144Z,12.37
2019-03-02T15:49:40.309Z,13.30
2019-03-02T15:52:35.957Z,12.25
2019-03-02T15:55:21.758Z,13.40
2019-03-02T15:58:19.844Z,14.70
2019-03-02T16:01:07.546Z,14.35
2019-03-02T16:03:44.526Z,16.93
2019-03-02T16:06:33.421Z,13.75
2019-03-02T16:09:29.781Z,19.87
2019-03-02T16:12:09.865Z,16.82
2019-03-02T16:14:51.653Z,16.97
2019-03-02T16:17:40.056Z,18.00
2019-03-02T16:20:18.552Z,15.93
2019-03-02T16:22:54.041Z,14.87
2019-03-02T16:25:31.437Z,17.65
2019-03-02T16:28:22.082Z,19.00
2019-03-02T16:31:12.128Z,17.73
2019-03-02T16:34:10.134Z,18.10
2019-03-02T16:37:09.441Z,16.23
2019-03-02T16:39:54.354Z,17.77
2019-03-02T16:42:56.956Z,16.85
2019-03-02T16:45:43.310Z,16.77
2019-03-02T16:48:40.054Z,16.60
2019-03-02T16:51:16.477Z,17.17
2019-03-02T16:54:05.065Z,15.63
2019-03-02T16:56:43.857Z,15.93
2019-03-02T16:59:20.310Z,17.20
2019-03-02T17:02:07.838Z,17.82
2019-03-02T17:05:13.068Z,19.65
2019-03-02T17:08:00.807Z,18.12
2019-03-02T17:10:59.588Z,18.80
2019-03-02T17:13:37.781Z,17.00
2019-03-02T17:16:28.178Z,17.65
2019-03-02T17:19:15.881Z,17.75
2019-03-02T17:21:58.648Z,19.67
2019-03-02T17:25:02.425Z,20.20
2019-03-02T17:27:37.795Z,19.45
2019-03-02T17:30:34.029Z,20.08
2019-03-02T17:33:14.099Z,21.27
2019-03-02T17:36:02.066Z,21.23
2019-03-02T17:38:53.029Z,25.00
2019-03-02T17:41:30.519Z,26.10
2019-03-02T17:44:12.716Z,24.60
2019-03-02T17:46:59.982Z,24.95
2019-03-02T17:49:50.131Z,26.73
2019-03-02T17:52:38.365Z,27.50
2019-03-02T17:55:24.949Z,32.55
2019-03-02T17:58:14.420Z,29.02
2019-03-02T18:01:19.596Z,27.00
2019-03-02T18:04:06.724Z,27.80
2019-03-02T18:07:00.652Z,25.43
2019-03-02T18:09:51.003Z,29.72
2019-03-02T18:12:29.343Z,26.40
2019-03-02T18:15:29.969Z,26.10
2019-03-02T18:18:04.359Z,25.17
2019-03-02T18:20:33.744Z,20.97
2019-03-02T18:23:01.564Z,23.80
2019-03-02T18:25:29.608Z,22.52
2019-03-02T18:27:59.276Z,19.82
2019-03-02T18:30:28.414Z,20.40
2019-03-02T18:32:59.943Z,21.52
2019-03-02T18:35:29.176Z,23.47
2019-03-02T18:37:57.087Z,24.18
2019-03-02T18:40:24.759Z,22.15
2019-03-02T18:42:52.845Z,21.57
2019-03-02T18:45:20.719Z,21.97
2019-03-02T18:47:48.413Z,21.68
2019-03-02T18:50:41.662Z,23.18
2019-03-02T18:53:09.560Z,21.17
2019-03-02T18:55:37.506Z,19.35
2019-03-02T18:58:06.833Z,26.60
2019-03-02T19:00:39.938Z,21.97
2019-03-02T19:03:09.166Z,25.90
2019-03-02T19:05:38.477Z,27.50
2019-03-02T19:08:11.594Z,23.00
2019-03-02T19:10:39.730Z,23.05
2019-03-02T19:13:09.820Z,27.13
2019-03-02T19:15:39.411Z,22.95
2019-03-02T19:18:07.607Z,30.57
2019-03-02T19:20:42.419Z,30.43
2019-03-02T19:23:10.748Z,22.87
2019-03-02T19:25:38.835Z,29.27
2019-03-02T19:28:07.239Z,24.70
2019-03-02T19:30:41.682Z,22.13
2019-03-02T19:33:10.348Z,28.47
2019-03-02T19:35:38.633Z,24.25
2019-03-02T19:38:06.944Z,26.97
2019-03-02T19:40:35.402Z,30.72
2019-03-02T19:43:03.810Z,35.45
2019-03-02T19:45:32.634Z,28.40
2019-03-02T19:48:01.620Z,22.20
2019-03-02T19:50:33.243Z,23.55
2019-03-02T19:53:01.483Z,23.90
2019-03-02T19:55:29.784Z,22.67
2019-03-02T19:57:58.019Z,27.93
2019-03-02T20:00:27.126Z,23.20
2019-03-02T20:02:57.046Z,23.25
2019-03-02T20:05:26.230Z,27.32
2019-03-02T20:07:54.441Z,24.57
2019-03-02T20:10:23.586Z,25.70
2019-03-02T20:12:51.695Z,24.47
2019-03-02T20:15:19.794Z,25.43
2019-03-02T20:17:48.033Z,28.52
2019-03-02T20:20:16.922Z,23.15
2019-03-02T20:22:46.890Z,28.07
2019-03-02T20:25:14.674Z,24.27
2019-03-02T20:27:43.192Z,24.35
2019-03-02T20:30:14.519Z,25.25
2019-03-02T20:32:42.998Z,24.43
2019-03-02T20:35:14.892Z,26.00
2019-03-02T20:37:44.366Z,23.18
2019-03-02T20:40:16.554Z,23.40
2019-03-02T20:42:45.017Z,29.18
2019-03-02T20:45:14.425Z,26.33
2019-03-02T20:47:42.807Z,19.65
2019-03-02T20:50:14.859Z,23.65
2019-03-02T20:52:43.058Z,26.37
2019-03-02T20:55:12.023Z,22.10
2019-03-02T20:57:42.363Z,25.30
2019-03-02T21:00:16.374Z,23.60
2019-03-02T21:02:45.569Z,21.40
2019-03-02T21:05:14.243Z,24.23
2019-03-02T21:07:42.938Z,21.17
2019-03-02T21:10:12.943Z,28.00
2019-03-02T21:12:41.549Z,21.65
2019-03-02T21:15:17.366Z,25.35
2019-03-02T21:17:46.193Z,21.70
2019-03-02T21:20:16.302Z,23.75
2019-03-02T21:22:47.036Z,28.80
2019-03-02T21:25:15.210Z,23.47
2019-03-02T21:27:43.467Z,24.90
2019-03-02T21:30:13.496Z,25.48
2019-03-02T21:32:41.667Z,29.12
2019-03-02T21:35:09.765Z,19.80
2019-03-02T21:37:38.221Z,30.02
2019-03-02T21:40:12.341Z,25.75
2019-03-02T21:42:40.912Z,25.68
2019-03-02T21:45:11.992Z,23.80
2019-03-02T21:47:42.787Z,20.20
2019-03-02T21:50:12.927Z,21.60
2019-03-02T21:52:44.147Z,22.93
2019-03-02T21:55:12.686Z,27.07
2019-03-02T21:57:41.222Z,21.97
2019-03-02T22:00:12.940Z,21.20
2019-03-02T22:02:41.498Z,21.90
2019-03-02T22:05:10.981Z,21.50
2019-03-02T22:07:39.253Z,22.32
2019-03-02T22:10:11.150Z,22.20
2019-03-02T22:12:39.474Z,23.52
2019-03-02T22:15:10.353Z,23.50
2019-03-02T22:17:39.010Z,19.48
2019-03-02T22:20:09.259Z,24.18
2019-03-02T22:22:37.497Z,23.57
2019-03-02T22:25:06.930Z,22.77
2019-03-02T22:27:35.296Z,21.05
2019-03-02T22:30:04.393Z,22.42
2019-03-02T22:32:33.064Z,23.83
2019-03-02T22:35:02.572Z,21.07
2019-03-02T22:37:30.866Z,31.73
2019-03-02T22:39:59.159Z,25.90
2019-03-02T22:42:27.805Z,27.90
2019-03-02T22:44:56.085Z,25.32
2019-03-02T22:47:24.349Z,24.25
2019-03-02T22:49:52.636Z,25.82
2019-03-02T22:52:20.529Z,28.67
2019-03-02T22:54:48.837Z,27.50
2019-03-02T22:57:16.631Z,29.25
2019-03-02T23:00:13.796Z,23.12
2019-03-02T23:02:41.871Z,22.37
2019-03-02T23:05:10.559Z,22.95
2019-03-02T23:07:38.822Z,24.27
2019-03-02T23:10:07.880Z,24.00
2019-03-02T23:12:35.750Z,27.65
2019-03-02T23:15:04.080Z,23.47
2019-03-02T23:17:32.586Z,27.20
2019-03-02T23:20:00.897Z,24.45
2019-03-02T23:22:28.888Z,26.60
2019-03-02T23:24:56.754Z,26.07
2019-03-02T23:27:24.522Z,26.75
2019-03-02T23:29:52.487Z,28.52
2019-03-02T23:32:22.433Z,28.40
2019-03-02T23:34:50.680Z,25.88
2019-03-02T23:37:20.355Z,30.00
2019-03-02T23:39:48.873Z,28.95
2019-03-02T23:42:17.993Z,25.48
2019-03-02T23:44:46.250Z,25.77
2019-03-02T23:47:15.378Z,31.10
2019-03-02T23:49:43.686Z,31.17
2019-03-02T23:52:12.306Z,32.93
2019-03-02T23:54:40.553Z,33.95
2019-03-02T23:57:08.271Z,33.48
2019-03-02T23:59:36.764Z,32.38
